sensor_id;sensor_type;location;lat;lon;timestamp;P1;durP1;ratioP1;P2;durP2;ratioP2
16977;SDS011;8605;52.548;4.918;2022-10-16T00:02:09;1.50;;;0.80;;
16977;SDS011;8605;52.548;4.918;2022-10-16T00:07:34;1.20;;;0.67;;
16977;SDS011;8605;52.548;4.918;2022-10-16T00:12:57;3.07;;;0.70;;
16977;SDS011;8605;52.548;4.918;2022-10-16T00:18:20;0.97;;;0.60;;
16977;SDS011;8605;52.548;4.918;2022-10-16T00:23:45;2.57;;;0.97;;
16977;SDS011;8605;52.548;4.918;2022-10-16T00:29:08;1.33;;;0.60;;
16977;SDS011;8605;52.548;4.918;2022-10-16T00:34:32;2.77;;;0.90;;
16977;SDS011;8605;52.548;4.918;2022-10-16T00:39:56;3.93;;;0.83;;
16977;SDS011;8605;52.548;4.918;2022-10-16T00:45:19;0.70;;;0.60;;
16977;SDS011;8605;52.548;4.918;2022-10-16T00:50:42;1.17;;;0.90;;
16977;SDS011;8605;52.548;4.918;2022-10-16T00:56:07;2.63;;;1.13;;
16977;SDS011;8605;52.548;4.918;2022-10-16T01:01:30;2.30;;;1.00;;
16977;SDS011;8605;52.548;4.918;2022-10-16T01:06:55;1.80;;;0.97;;
16977;SDS011;8605;52.548;4.918;2022-10-16T01:12:28;4.57;;;1.03;;
16977;SDS011;8605;52.548;4.918;2022-10-16T01:18:00;1.33;;;1.03;;
16977;SDS011;8605;52.548;4.918;2022-10-16T01:23:34;2.30;;;1.20;;
16977;SDS011;8605;52.548;4.918;2022-10-16T01:29:03;3.80;;;1.30;;
16977;SDS011;8605;52.548;4.918;2022-10-16T01:34:31;6.37;;;1.20;;
16977;SDS011;8605;52.548;4.918;2022-10-16T01:39:57;2.03;;;0.83;;
16977;SDS011;8605;52.548;4.918;2022-10-16T01:45:23;1.47;;;0.80;;
16977;SDS011;8605;52.548;4.918;2022-10-16T01:50:49;0.87;;;0.70;;
16977;SDS011;8605;52.548;4.918;2022-10-16T01:56:15;0.73;;;0.73;;
16977;SDS011;8605;52.548;4.918;2022-10-16T02:01:42;2.87;;;0.60;;
16977;SDS011;8605;52.548;4.918;2022-10-16T02:07:08;1.43;;;0.73;;
16977;SDS011;8605;52.548;4.918;2022-10-16T02:12:32;1.47;;;0.50;;
16977;SDS011;8605;52.548;4.918;2022-10-16T02:17:57;2.00;;;0.67;;
16977;SDS011;8605;52.548;4.918;2022-10-16T02:23:28;6.87;;;1.00;;
16977;SDS011;8605;52.548;4.918;2022-10-16T02:28:57;1.30;;;1.00;;
16977;SDS011;8605;52.548;4.918;2022-10-16T02:34:24;0.90;;;0.70;;
16977;SDS011;8605;52.548;4.918;2022-10-16T02:39:48;2.30;;;0.73;;
16977;SDS011;8605;52.548;4.918;2022-10-16T02:45:11;1.03;;;0.70;;
16977;SDS011;8605;52.548;4.918;2022-10-16T02:50:35;4.57;;;0.80;;
16977;SDS011;8605;52.548;4.918;2022-10-16T02:55:59;0.60;;;0.60;;
16977;SDS011;8605;52.548;4.918;2022-10-16T03:01:22;2.60;;;1.17;;
16977;SDS011;8605;52.548;4.918;2022-10-16T03:06:46;2.37;;;0.90;;
16977;SDS011;8605;52.548;4.918;2022-10-16T03:12:09;2.10;;;0.90;;
16977;SDS011;8605;52.548;4.918;2022-10-16T03:17:33;1.30;;;0.67;;
16977;SDS011;8605;52.548;4.918;2022-10-16T03:22:58;3.73;;;1.23;;
16977;SDS011;8605;52.548;4.918;2022-10-16T03:28:21;1.80;;;0.87;;
16977;SDS011;8605;52.548;4.918;2022-10-16T03:33:44;1.53;;;1.10;;
16977;SDS011;8605;52.548;4.918;2022-10-16T03:39:08;1.27;;;1.10;;
16977;SDS011;8605;52.548;4.918;2022-10-16T03:44:31;1.90;;;1.30;;
16977;SDS011;8605;52.548;4.918;2022-10-16T03:49:55;3.73;;;1.23;;
16977;SDS011;8605;52.548;4.918;2022-10-16T03:55:19;2.00;;;1.00;;
16977;SDS011;8605;52.548;4.918;2022-10-16T04:00:43;3.10;;;1.00;;
16977;SDS011;8605;52.548;4.918;2022-10-16T04:06:06;1.53;;;1.17;;
16977;SDS011;8605;52.548;4.918;2022-10-16T04:11:31;1.10;;;1.00;;
16977;SDS011;8605;52.548;4.918;2022-10-16T04:16:54;2.03;;;0.93;;
16977;SDS011;8605;52.548;4.918;2022-10-16T04:22:17;7.10;;;1.30;;
16977;SDS011;8605;52.548;4.918;2022-10-16T04:27:42;1.60;;;0.90;;
16977;SDS011;8605;52.548;4.918;2022-10-16T04:33:07;3.17;;;1.20;;
16977;SDS011;8605;52.548;4.918;2022-10-16T04:38:31;1.90;;;1.03;;
16977;SDS011;8605;52.548;4.918;2022-10-16T04:43:56;4.83;;;1.97;;
16977;SDS011;8605;52.548;4.918;2022-10-16T04:49:19;2.47;;;1.53;;
16977;SDS011;8605;52.548;4.918;2022-10-16T04:54:42;4.63;;;1.70;;
16977;SDS011;8605;52.548;4.918;2022-10-16T05:00:08;2.80;;;1.10;;
16977;SDS011;8605;52.548;4.918;2022-10-16T05:05:32;3.37;;;1.77;;
16977;SDS011;8605;52.548;4.918;2022-10-16T05:10:55;3.20;;;1.30;;
16977;SDS011;8605;52.548;4.918;2022-10-16T05:16:20;3.17;;;1.07;;
16977;SDS011;8605;52.548;4.918;2022-10-16T05:21:43;4.33;;;1.53;;
16977;SDS011;8605;52.548;4.918;2022-10-16T05:27:06;5.60;;;1.20;;
16977;SDS011;8605;52.548;4.918;2022-10-16T05:32:30;2.07;;;1.50;;
16977;SDS011;8605;52.548;4.918;2022-10-16T05:37:54;1.60;;;0.93;;
16977;SDS011;8605;52.548;4.918;2022-10-16T05:43:17;3.07;;;2.23;;
16977;SDS011;8605;52.548;4.918;2022-10-16T05:48:41;1.77;;;1.27;;
16977;SDS011;8605;52.548;4.918;2022-10-16T05:54:04;1.67;;;0.83;;
16977;SDS011;8605;52.548;4.918;2022-10-16T05:59:28;2.00;;;0.90;;
16977;SDS011;8605;52.548;4.918;2022-10-16T06:04:52;2.07;;;1.27;;
16977;SDS011;8605;52.548;4.918;2022-10-16T06:10:16;2.53;;;1.30;;
16977;SDS011;8605;52.548;4.918;2022-10-16T06:15:39;2.40;;;1.70;;
16977;SDS011;8605;52.548;4.918;2022-10-16T06:21:08;2.20;;;1.30;;
16977;SDS011;8605;52.548;4.918;2022-10-16T06:26:32;7.40;;;1.67;;
16977;SDS011;8605;52.548;4.918;2022-10-16T06:31:55;2.10;;;0.97;;
16977;SDS011;8605;52.548;4.918;2022-10-16T06:37:19;2.87;;;1.40;;
16977;SDS011;8605;52.548;4.918;2022-10-16T06:42:43;1.80;;;1.33;;
16977;SDS011;8605;52.548;4.918;2022-10-16T06:48:06;3.03;;;1.17;;
16977;SDS011;8605;52.548;4.918;2022-10-16T06:53:31;1.73;;;1.20;;
16977;SDS011;8605;52.548;4.918;2022-10-16T06:59:09;2.17;;;1.00;;
16977;SDS011;8605;52.548;4.918;2022-10-16T07:04:32;2.33;;;1.97;;
16977;SDS011;8605;52.548;4.918;2022-10-16T07:09:57;5.47;;;1.47;;
16977;SDS011;8605;52.548;4.918;2022-10-16T07:15:20;5.13;;;1.27;;
16977;SDS011;8605;52.548;4.918;2022-10-16T07:20:43;1.93;;;1.67;;
16977;SDS011;8605;52.548;4.918;2022-10-16T07:26:08;2.20;;;1.70;;
16977;SDS011;8605;52.548;4.918;2022-10-16T07:31:32;7.67;;;3.67;;
16977;SDS011;8605;52.548;4.918;2022-10-16T07:36:55;5.80;;;1.63;;
16977;SDS011;8605;52.548;4.918;2022-10-16T07:42:19;6.07;;;1.27;;
16977;SDS011;8605;52.548;4.918;2022-10-16T07:47:42;4.70;;;2.10;;
16977;SDS011;8605;52.548;4.918;2022-10-16T07:53:05;5.40;;;1.73;;
16977;SDS011;8605;52.548;4.918;2022-10-16T07:58:30;3.13;;;1.60;;
16977;SDS011;8605;52.548;4.918;2022-10-16T08:03:53;7.37;;;2.03;;
16977;SDS011;8605;52.548;4.918;2022-10-16T08:09:16;8.90;;;2.27;;
16977;SDS011;8605;52.548;4.918;2022-10-16T08:14:41;5.90;;;2.07;;
16977;SDS011;8605;52.548;4.918;2022-10-16T08:20:09;2.00;;;1.77;;
16977;SDS011;8605;52.548;4.918;2022-10-16T08:25:34;3.03;;;1.50;;
16977;SDS011;8605;52.548;4.918;2022-10-16T08:31:05;5.80;;;1.80;;
16977;SDS011;8605;52.548;4.918;2022-10-16T08:36:29;7.20;;;1.73;;
16977;SDS011;8605;52.548;4.918;2022-10-16T08:42:08;5.87;;;1.90;;
16977;SDS011;8605;52.548;4.918;2022-10-16T08:47:42;2.73;;;1.80;;
16977;SDS011;8605;52.548;4.918;2022-10-16T08:53:09;9.40;;;1.90;;
16977;SDS011;8605;52.548;4.918;2022-10-16T08:58:37;9.60;;;2.60;;
16977;SDS011;8605;52.548;4.918;2022-10-16T09:04:07;9.90;;;2.03;;
16977;SDS011;8605;52.548;4.918;2022-10-16T09:09:49;8.27;;;2.90;;
16977;SDS011;8605;52.548;4.918;2022-10-16T09:15:21;7.10;;;1.87;;
16977;SDS011;8605;52.548;4.918;2022-10-16T09:20:51;6.97;;;1.87;;
16977;SDS011;8605;52.548;4.918;2022-10-16T09:26:18;5.60;;;2.37;;
16977;SDS011;8605;52.548;4.918;2022-10-16T09:31:44;5.77;;;3.03;;
16977;SDS011;8605;52.548;4.918;2022-10-16T09:37:10;3.80;;;1.77;;
16977;SDS011;8605;52.548;4.918;2022-10-16T09:42:35;2.87;;;1.70;;
16977;SDS011;8605;52.548;4.918;2022-10-16T09:48:01;6.40;;;3.20;;
16977;SDS011;8605;52.548;4.918;2022-10-16T09:53:26;3.43;;;1.77;;
16977;SDS011;8605;52.548;4.918;2022-10-16T09:59:01;5.43;;;2.73;;
16977;SDS011;8605;52.548;4.918;2022-10-16T10:04:26;7.60;;;1.73;;
16977;SDS011;8605;52.548;4.918;2022-10-16T10:10:03;12.73;;;1.47;;
16977;SDS011;8605;52.548;4.918;2022-10-16T10:15:27;2.33;;;1.27;;
16977;SDS011;8605;52.548;4.918;2022-10-16T10:20:59;2.60;;;1.33;;
16977;SDS011;8605;52.548;4.918;2022-10-16T10:26:24;14.53;;;1.73;;
16977;SDS011;8605;52.548;4.918;2022-10-16T10:31:52;9.33;;;2.13;;
16977;SDS011;8605;52.548;4.918;2022-10-16T10:37:27;19.30;;;2.63;;
16977;SDS011;8605;52.548;4.918;2022-10-16T10:42:59;8.73;;;2.20;;
16977;SDS011;8605;52.548;4.918;2022-10-16T10:48:30;9.80;;;3.33;;
16977;SDS011;8605;52.548;4.918;2022-10-16T10:54:09;6.60;;;1.73;;
16977;SDS011;8605;52.548;4.918;2022-10-16T10:59:40;9.77;;;2.97;;
16977;SDS011;8605;52.548;4.918;2022-10-16T11:05:18;12.77;;;2.00;;
16977;SDS011;8605;52.548;4.918;2022-10-16T11:11:01;4.50;;;1.37;;
16977;SDS011;8605;52.548;4.918;2022-10-16T11:16:29;4.97;;;1.83;;
16977;SDS011;8605;52.548;4.918;2022-10-16T11:21:55;4.18;;;1.95;;
16977;SDS011;8605;52.548;4.918;2022-10-16T11:27:33;6.55;;;1.90;;
16977;SDS011;8605;52.548;4.918;2022-10-16T11:33:05;6.47;;;1.88;;
16977;SDS011;8605;52.548;4.918;2022-10-16T11:38:48;7.93;;;1.48;;
16977;SDS011;8605;52.548;4.918;2022-10-16T11:50:02;2.80;;;1.45;;
16977;SDS011;8605;52.548;4.918;2022-10-16T11:55:28;8.98;;;1.75;;
16977;SDS011;8605;52.548;4.918;2022-10-16T12:00:56;7.10;;;1.67;;
16977;SDS011;8605;52.548;4.918;2022-10-16T12:06:27;5.25;;;1.60;;
16977;SDS011;8605;52.548;4.918;2022-10-16T12:11:54;3.17;;;1.40;;
16977;SDS011;8605;52.548;4.918;2022-10-16T12:17:26;4.72;;;1.30;;
16977;SDS011;8605;52.548;4.918;2022-10-16T12:22:52;6.53;;;1.83;;
16977;SDS011;8605;52.548;4.918;2022-10-16T12:28:19;4.53;;;1.45;;
16977;SDS011;8605;52.548;4.918;2022-10-16T12:33:51;6.38;;;4.30;;
16977;SDS011;8605;52.548;4.918;2022-10-16T12:39:21;2.95;;;1.27;;
16977;SDS011;8605;52.548;4.918;2022-10-16T12:44:45;7.65;;;1.52;;
16977;SDS011;8605;52.548;4.918;2022-10-16T12:50:23;6.82;;;1.23;;
16977;SDS011;8605;52.548;4.918;2022-10-16T12:55:52;12.70;;;1.80;;
16977;SDS011;8605;52.548;4.918;2022-10-16T13:01:28;15.35;;;3.13;;
16977;SDS011;8605;52.548;4.918;2022-10-16T13:06:57;5.07;;;1.40;;
16977;SDS011;8605;52.548;4.918;2022-10-16T13:12:31;2.58;;;1.10;;
16977;SDS011;8605;52.548;4.918;2022-10-16T13:18:09;5.90;;;1.50;;
16977;SDS011;8605;52.548;4.918;2022-10-16T13:23:36;5.53;;;1.40;;
16977;SDS011;8605;52.548;4.918;2022-10-16T13:29:13;4.97;;;1.95;;
16977;SDS011;8605;52.548;4.918;2022-10-16T13:34:41;8.15;;;1.83;;
16977;SDS011;8605;52.548;4.918;2022-10-16T13:40:09;5.70;;;1.60;;
16977;SDS011;8605;52.548;4.918;2022-10-16T13:45:51;7.35;;;1.85;;
16977;SDS011;8605;52.548;4.918;2022-10-16T13:51:16;9.95;;;1.88;;
16977;SDS011;8605;52.548;4.918;2022-10-16T13:56:41;14.05;;;2.25;;
16977;SDS011;8605;52.548;4.918;2022-10-16T14:02:08;6.30;;;1.48;;
16977;SDS011;8605;52.548;4.918;2022-10-16T14:07:40;2.75;;;1.10;;
16977;SDS011;8605;52.548;4.918;2022-10-16T14:13:29;3.20;;;1.20;;
16977;SDS011;8605;52.548;4.918;2022-10-16T14:18:57;2.58;;;1.25;;
16977;SDS011;8605;52.548;4.918;2022-10-16T14:24:25;8.77;;;3.10;;
16977;SDS011;8605;52.548;4.918;2022-10-16T14:29:50;3.53;;;1.25;;
16977;SDS011;8605;52.548;4.918;2022-10-16T14:35:22;5.10;;;2.30;;
16977;SDS011;8605;52.548;4.918;2022-10-16T14:40:48;8.63;;;2.38;;
16977;SDS011;8605;52.548;4.918;2022-10-16T14:46:12;5.35;;;2.08;;
16977;SDS011;8605;52.548;4.918;2022-10-16T14:51:38;4.88;;;1.95;;
16977;SDS011;8605;52.548;4.918;2022-10-16T14:57:02;7.70;;;1.70;;
16977;SDS011;8605;52.548;4.918;2022-10-16T15:02:27;10.25;;;2.03;;
16977;SDS011;8605;52.548;4.918;2022-10-16T15:07:53;9.45;;;1.45;;
16977;SDS011;8605;52.548;4.918;2022-10-16T15:13:17;8.87;;;1.50;;
16977;SDS011;8605;52.548;4.918;2022-10-16T15:18:40;10.25;;;4.05;;
16977;SDS011;8605;52.548;4.918;2022-10-16T15:24:08;9.63;;;4.93;;
16977;SDS011;8605;52.548;4.918;2022-10-16T15:29:33;8.03;;;6.77;;
16977;SDS011;8605;52.548;4.918;2022-10-16T15:34:56;5.40;;;2.40;;
16977;SDS011;8605;52.548;4.918;2022-10-16T15:40:21;3.87;;;2.13;;
16977;SDS011;8605;52.548;4.918;2022-10-16T15:45:46;10.07;;;3.03;;
16977;SDS011;8605;52.548;4.918;2022-10-16T15:51:22;6.50;;;2.63;;
16977;SDS011;8605;52.548;4.918;2022-10-16T15:56:46;8.10;;;2.33;;
16977;SDS011;8605;52.548;4.918;2022-10-16T16:02:09;6.67;;;2.27;;
16977;SDS011;8605;52.548;4.918;2022-10-16T16:07:33;21.47;;;6.93;;
16977;SDS011;8605;52.548;4.918;2022-10-16T16:12:58;10.90;;;4.63;;
16977;SDS011;8605;52.548;4.918;2022-10-16T16:18:21;10.63;;;4.20;;
16977;SDS011;8605;52.548;4.918;2022-10-16T16:23:45;6.13;;;3.33;;
16977;SDS011;8605;52.548;4.918;2022-10-16T16:29:10;7.67;;;3.10;;
16977;SDS011;8605;52.548;4.918;2022-10-16T16:34:35;6.73;;;2.60;;
16977;SDS011;8605;52.548;4.918;2022-10-16T16:39:58;6.20;;;2.77;;
16977;SDS011;8605;52.548;4.918;2022-10-16T16:45:22;6.93;;;3.20;;
16977;SDS011;8605;52.548;4.918;2022-10-16T16:50:50;13.87;;;3.33;;
16977;SDS011;8605;52.548;4.918;2022-10-16T16:56:13;5.63;;;3.07;;
16977;SDS011;8605;52.548;4.918;2022-10-16T17:01:38;18.73;;;4.70;;
16977;SDS011;8605;52.548;4.918;2022-10-16T17:07:01;6.43;;;1.87;;
16977;SDS011;8605;52.548;4.918;2022-10-16T17:12:24;4.80;;;2.07;;
16977;SDS011;8605;52.548;4.918;2022-10-16T17:17:49;8.80;;;2.00;;
16977;SDS011;8605;52.548;4.918;2022-10-16T17:23:12;11.20;;;2.00;;
16977;SDS011;8605;52.548;4.918;2022-10-16T17:28:35;10.77;;;2.03;;
16977;SDS011;8605;52.548;4.918;2022-10-16T17:34:00;7.10;;;2.20;;
16977;SDS011;8605;52.548;4.918;2022-10-16T17:39:25;9.73;;;3.37;;
16977;SDS011;8605;52.548;4.918;2022-10-16T17:44:48;4.90;;;2.80;;
16977;SDS011;8605;52.548;4.918;2022-10-16T17:50:12;9.30;;;2.80;;
16977;SDS011;8605;52.548;4.918;2022-10-16T17:55:37;8.63;;;4.10;;
16977;SDS011;8605;52.548;4.918;2022-10-16T18:01:01;6.03;;;2.03;;
16977;SDS011;8605;52.548;4.918;2022-10-16T18:06:26;7.00;;;1.97;;
16977;SDS011;8605;52.548;4.918;2022-10-16T18:11:49;8.60;;;2.43;;
16977;SDS011;8605;52.548;4.918;2022-10-16T18:17:20;3.13;;;1.93;;
16977;SDS011;8605;52.548;4.918;2022-10-16T18:22:44;5.13;;;2.60;;
16977;SDS011;8605;52.548;4.918;2022-10-16T18:28:07;17.77;;;5.57;;
16977;SDS011;8605;52.548;4.918;2022-10-16T18:33:31;9.30;;;3.03;;
16977;SDS011;8605;52.548;4.918;2022-10-16T18:38:55;6.70;;;3.27;;
16977;SDS011;8605;52.548;4.918;2022-10-16T18:44:19;6.33;;;2.33;;
16977;SDS011;8605;52.548;4.918;2022-10-16T18:49:42;9.53;;;4.00;;
16977;SDS011;8605;52.548;4.918;2022-10-16T18:55:09;6.77;;;3.33;;
16977;SDS011;8605;52.548;4.918;2022-10-16T19:00:32;7.13;;;2.47;;
16977;SDS011;8605;52.548;4.918;2022-10-16T19:05:57;10.80;;;4.50;;
16977;SDS011;8605;52.548;4.918;2022-10-16T19:11:23;15.00;;;2.63;;
16977;SDS011;8605;52.548;4.918;2022-10-16T19:16:47;8.77;;;2.33;;
16977;SDS011;8605;52.548;4.918;2022-10-16T19:22:10;4.53;;;2.53;;
16977;SDS011;8605;52.548;4.918;2022-10-16T19:27:39;5.20;;;2.43;;
16977;SDS011;8605;52.548;4.918;2022-10-16T19:33:02;9.43;;;4.47;;
16977;SDS011;8605;52.548;4.918;2022-10-16T19:38:25;12.07;;;3.30;;
16977;SDS011;8605;52.548;4.918;2022-10-16T19:43:50;7.33;;;2.57;;
16977;SDS011;8605;52.548;4.918;2022-10-16T19:49:14;8.80;;;3.93;;
16977;SDS011;8605;52.548;4.918;2022-10-16T19:54:41;8.60;;;3.43;;
16977;SDS011;8605;52.548;4.918;2022-10-16T20:00:08;7.00;;;3.57;;
16977;SDS011;8605;52.548;4.918;2022-10-16T20:05:32;9.60;;;2.40;;
16977;SDS011;8605;52.548;4.918;2022-10-16T20:10:55;4.47;;;1.60;;
16977;SDS011;8605;52.548;4.918;2022-10-16T20:16:19;10.83;;;2.60;;
16977;SDS011;8605;52.548;4.918;2022-10-16T20:21:42;5.77;;;2.67;;
16977;SDS011;8605;52.548;4.918;2022-10-16T20:27:06;6.80;;;2.27;;
16977;SDS011;8605;52.548;4.918;2022-10-16T20:32:30;4.73;;;2.20;;
16977;SDS011;8605;52.548;4.918;2022-10-16T20:37:53;4.13;;;1.70;;
16977;SDS011;8605;52.548;4.918;2022-10-16T20:43:17;1.60;;;1.50;;
16977;SDS011;8605;52.548;4.918;2022-10-16T20:48:43;5.00;;;1.53;;
16977;SDS011;8605;52.548;4.918;2022-10-16T20:54:09;5.00;;;1.30;;
16977;SDS011;8605;52.548;4.918;2022-10-16T20:59:33;6.50;;;1.60;;
16977;SDS011;8605;52.548;4.918;2022-10-16T21:04:57;7.20;;;1.87;;
16977;SDS011;8605;52.548;4.918;2022-10-16T21:10:20;5.90;;;1.70;;
16977;SDS011;8605;52.548;4.918;2022-10-16T21:15:43;6.90;;;1.97;;
16977;SDS011;8605;52.548;4.918;2022-10-16T21:21:08;5.93;;;1.50;;
16977;SDS011;8605;52.548;4.918;2022-10-16T21:26:31;4.30;;;1.73;;
16977;SDS011;8605;52.548;4.918;2022-10-16T21:31:55;10.10;;;3.63;;
16977;SDS011;8605;52.548;4.918;2022-10-16T21:37:19;4.83;;;2.80;;
16977;SDS011;8605;52.548;4.918;2022-10-16T21:42:42;8.03;;;2.93;;
16977;SDS011;8605;52.548;4.918;2022-10-16T21:48:05;6.60;;;1.63;;
16977;SDS011;8605;52.548;4.918;2022-10-16T21:53:30;8.53;;;2.83;;
16977;SDS011;8605;52.548;4.918;2022-10-16T21:58:53;9.30;;;2.47;;
16977;SDS011;8605;52.548;4.918;2022-10-16T22:04:16;5.50;;;1.90;;
16977;SDS011;8605;52.548;4.918;2022-10-16T22:09:41;3.93;;;2.03;;
16977;SDS011;8605;52.548;4.918;2022-10-16T22:15:05;3.00;;;2.07;;
16977;SDS011;8605;52.548;4.918;2022-10-16T22:20:29;3.37;;;1.90;;
16977;SDS011;8605;52.548;4.918;2022-10-16T22:25:54;9.57;;;2.70;;
16977;SDS011;8605;52.548;4.918;2022-10-16T22:31:20;3.73;;;1.80;;
16977;SDS011;8605;52.548;4.918;2022-10-16T22:36:44;3.87;;;2.03;;
16977;SDS011;8605;52.548;4.918;2022-10-16T22:42:11;9.07;;;2.30;;
16977;SDS011;8605;52.548;4.918;2022-10-16T22:47:34;9.47;;;2.50;;
16977;SDS011;8605;52.548;4.918;2022-10-16T22:52:58;3.83;;;2.20;;
16977;SDS011;8605;52.548;4.918;2022-10-16T22:58:22;5.27;;;2.47;;
16977;SDS011;8605;52.548;4.918;2022-10-16T23:03:45;7.30;;;2.50;;
16977;SDS011;8605;52.548;4.918;2022-10-16T23:09:08;11.30;;;2.63;;
16977;SDS011;8605;52.548;4.918;2022-10-16T23:14:33;4.33;;;2.03;;
16977;SDS011;8605;52.548;4.918;2022-10-16T23:19:56;6.10;;;2.60;;
16977;SDS011;8605;52.548;4.918;2022-10-16T23:25:19;5.63;;;3.03;;
16977;SDS011;8605;52.548;4.918;2022-10-16T23:30:44;2.90;;;2.00;;
16977;SDS011;8605;52.548;4.918;2022-10-16T23:36:07;9.77;;;3.47;;
16977;SDS011;8605;52.548;4.918;2022-10-16T23:41:31;7.97;;;2.70;;
16977;SDS011;8605;52.548;4.918;2022-10-16T23:46:56;6.23;;;2.20;;
16977;SDS011;8605;52.548;4.918;2022-10-16T23:52:19;3.93;;;2.47;;
16977;SDS011;8605;52.548;4.918;2022-10-16T23:57:42;4.57;;;2.77;;
